sensor_id;sensor_type;location;lat;lon;timestamp;temperature;humidity
48988;DHT22;34799;51.440;-2.534;2022-07-29T00:02:10;17.80;99.90
48988;DHT22;34799;51.440;-2.534;2022-07-29T00:04:37;17.80;99.90
48988;DHT22;34799;51.440;-2.534;2022-07-29T00:07:05;17.80;99.90
48988;DHT22;34799;51.440;-2.534;2022-07-29T00:09:33;17.80;99.90
48988;DHT22;34799;51.440;-2.534;2022-07-29T00:12:02;17.80;99.90
48988;DHT22;34799;51.440;-2.534;2022-07-29T00:14:29;17.80;99.90
48988;DHT22;34799;51.440;-2.534;2022-07-29T00:16:56;17.80;99.90
48988;DHT22;34799;51.440;-2.534;2022-07-29T00:19:23;17.80;99.90
48988;DHT22;34799;51.440;-2.534;2022-07-29T00:21:52;17.80;99.90
48988;DHT22;34799;51.440;-2.534;2022-07-29T00:24:19;17.80;99.90
48988;DHT22;34799;51.440;-2.534;2022-07-29T00:26:46;17.70;99.90
48988;DHT22;34799;51.440;-2.534;2022-07-29T00:29:13;17.70;99.90
48988;DHT22;34799;51.440;-2.534;2022-07-29T00:31:58;17.70;99.90
48988;DHT22;34799;51.440;-2.534;2022-07-29T00:34:25;17.60;99.90
48988;DHT22;34799;51.440;-2.534;2022-07-29T00:37:13;17.60;99.90
48988;DHT22;34799;51.440;-2.534;2022-07-29T00:39:40;17.60;99.90
48988;DHT22;34799;51.440;-2.534;2022-07-29T00:42:07;17.50;99.90
48988;DHT22;34799;51.440;-2.534;2022-07-29T00:44:38;17.90;99.90
48988;DHT22;34799;51.440;-2.534;2022-07-29T00:47:08;17.60;99.90
48988;DHT22;34799;51.440;-2.534;2022-07-29T00:49:35;17.60;99.90
48988;DHT22;34799;51.440;-2.534;2022-07-29T00:52:08;17.60;99.90
48988;DHT22;34799;51.440;-2.534;2022-07-29T00:54:36;17.50;99.90
48988;DHT22;34799;51.440;-2.534;2022-07-29T00:57:06;17.50;99.90
48988;DHT22;34799;51.440;-2.534;2022-07-29T00:59:34;17.50;99.90
48988;DHT22;34799;51.440;-2.534;2022-07-29T01:02:03;17.50;99.90
48988;DHT22;34799;51.440;-2.534;2022-07-29T01:04:31;17.40;99.90
48988;DHT22;34799;51.440;-2.534;2022-07-29T01:07:01;17.40;99.90
48988;DHT22;34799;51.440;-2.534;2022-07-29T01:09:31;17.50;99.90
48988;DHT22;34799;51.440;-2.534;2022-07-29T01:11:59;17.40;99.90
48988;DHT22;34799;51.440;-2.534;2022-07-29T01:14:28;17.40;99.90
48988;DHT22;34799;51.440;-2.534;2022-07-29T01:17:04;17.40;99.90
48988;DHT22;34799;51.440;-2.534;2022-07-29T01:20:01;17.40;99.90
48988;DHT22;34799;51.440;-2.534;2022-07-29T01:25:41;17.40;99.90
48988;DHT22;34799;51.440;-2.534;2022-07-29T01:31:02;17.30;99.90
48988;DHT22;34799;51.440;-2.534;2022-07-29T01:33:31;17.30;99.90
48988;DHT22;34799;51.440;-2.534;2022-07-29T01:36:40;17.30;99.90
48988;DHT22;34799;51.440;-2.534;2022-07-29T01:39:30;17.40;99.90
48988;DHT22;34799;51.440;-2.534;2022-07-29T01:42:10;17.30;99.90
48988;DHT22;34799;51.440;-2.534;2022-07-29T01:44:57;17.30;99.90
48988;DHT22;34799;51.440;-2.534;2022-07-29T01:47:33;17.30;99.90
48988;DHT22;34799;51.440;-2.534;2022-07-29T01:50:06;17.30;99.90
48988;DHT22;34799;51.440;-2.534;2022-07-29T01:52:39;17.30;99.90
48988;DHT22;34799;51.440;-2.534;2022-07-29T01:55:14;17.20;99.90
48988;DHT22;34799;51.440;-2.534;2022-07-29T01:57:44;17.20;99.90
48988;DHT22;34799;51.440;-2.534;2022-07-29T02:00:13;17.20;99.90
48988;DHT22;34799;51.440;-2.534;2022-07-29T02:02:43;17.20;99.90
48988;DHT22;34799;51.440;-2.534;2022-07-29T02:05:15;17.10;99.90
48988;DHT22;34799;51.440;-2.534;2022-07-29T02:07:43;17.10;99.90
48988;DHT22;34799;51.440;-2.534;2022-07-29T02:10:13;17.20;99.90
48988;DHT22;34799;51.440;-2.534;2022-07-29T02:12:42;17.10;99.90
48988;DHT22;34799;51.440;-2.534;2022-07-29T02:15:11;17.10;99.90
48988;DHT22;34799;51.440;-2.534;2022-07-29T02:17:42;17.10;99.90
48988;DHT22;34799;51.440;-2.534;2022-07-29T02:20:11;17.10;99.90
48988;DHT22;34799;51.440;-2.534;2022-07-29T02:22:40;17.10;99.90
48988;DHT22;34799;51.440;-2.534;2022-07-29T02:25:08;17.10;99.90
48988;DHT22;34799;51.440;-2.534;2022-07-29T02:27:37;17.10;99.90
48988;DHT22;34799;51.440;-2.534;2022-07-29T02:30:06;17.00;99.90
48988;DHT22;34799;51.440;-2.534;2022-07-29T02:32:37;17.00;99.90
48988;DHT22;34799;51.440;-2.534;2022-07-29T02:35:09;17.00;99.90
48988;DHT22;34799;51.440;-2.534;2022-07-29T02:37:37;17.00;99.90
48988;DHT22;34799;51.440;-2.534;2022-07-29T02:40:10;17.00;99.90
48988;DHT22;34799;51.440;-2.534;2022-07-29T02:42:41;16.90;99.90
48988;DHT22;34799;51.440;-2.534;2022-07-29T02:45:10;16.90;99.90
48988;DHT22;34799;51.440;-2.534;2022-07-29T02:47:42;16.80;99.90
48988;DHT22;34799;51.440;-2.534;2022-07-29T02:50:21;16.80;99.90
48988;DHT22;34799;51.440;-2.534;2022-07-29T02:53:00;16.80;99.90
48988;DHT22;34799;51.440;-2.534;2022-07-29T02:55:54;16.80;99.90
48988;DHT22;34799;51.440;-2.534;2022-07-29T02:58:28;16.70;99.90
48988;DHT22;34799;51.440;-2.534;2022-07-29T03:00:59;16.80;99.90
48988;DHT22;34799;51.440;-2.534;2022-07-29T03:03:33;16.70;99.90
48988;DHT22;34799;51.440;-2.534;2022-07-29T03:06:01;16.60;99.90
48988;DHT22;34799;51.440;-2.534;2022-07-29T03:08:31;16.60;99.90
48988;DHT22;34799;51.440;-2.534;2022-07-29T03:10:59;16.60;99.90
48988;DHT22;34799;51.440;-2.534;2022-07-29T03:13:27;16.80;99.90
48988;DHT22;34799;51.440;-2.534;2022-07-29T03:15:57;16.50;99.90
48988;DHT22;34799;51.440;-2.534;2022-07-29T03:18:25;16.50;99.90
48988;DHT22;34799;51.440;-2.534;2022-07-29T03:20:52;16.40;99.90
48988;DHT22;34799;51.440;-2.534;2022-07-29T03:23:21;16.30;99.90
48988;DHT22;34799;51.440;-2.534;2022-07-29T03:25:50;16.30;99.90
48988;DHT22;34799;51.440;-2.534;2022-07-29T03:28:17;16.30;99.90
48988;DHT22;34799;51.440;-2.534;2022-07-29T03:30:44;16.20;99.90
48988;DHT22;34799;51.440;-2.534;2022-07-29T03:33:11;16.20;99.90
48988;DHT22;34799;51.440;-2.534;2022-07-29T03:35:39;16.10;99.90
48988;DHT22;34799;51.440;-2.534;2022-07-29T03:38:06;16.10;99.90
48988;DHT22;34799;51.440;-2.534;2022-07-29T03:41:03;16.10;99.90
48988;DHT22;34799;51.440;-2.534;2022-07-29T03:43:35;16.00;99.90
48988;DHT22;34799;51.440;-2.534;2022-07-29T03:46:06;15.90;99.90
48988;DHT22;34799;51.440;-2.534;2022-07-29T03:48:38;15.90;99.90
48988;DHT22;34799;51.440;-2.534;2022-07-29T03:51:06;15.90;99.90
48988;DHT22;34799;51.440;-2.534;2022-07-29T03:53:33;15.90;99.90
48988;DHT22;34799;51.440;-2.534;2022-07-29T03:56:03;15.80;99.90
48988;DHT22;34799;51.440;-2.534;2022-07-29T03:58:31;15.80;99.90
48988;DHT22;34799;51.440;-2.534;2022-07-29T04:00:59;15.80;99.90
48988;DHT22;34799;51.440;-2.534;2022-07-29T04:03:26;16.00;99.90
48988;DHT22;34799;51.440;-2.534;2022-07-29T04:06:04;16.00;99.90
48988;DHT22;34799;51.440;-2.534;2022-07-29T04:08:34;15.80;99.90
48988;DHT22;34799;51.440;-2.534;2022-07-29T04:11:02;15.80;99.90
48988;DHT22;34799;51.440;-2.534;2022-07-29T04:13:29;15.80;99.90
48988;DHT22;34799;51.440;-2.534;2022-07-29T04:15:56;15.80;99.90
48988;DHT22;34799;51.440;-2.534;2022-07-29T04:18:25;15.70;99.90
48988;DHT22;34799;51.440;-2.534;2022-07-29T04:20:52;16.10;99.90
48988;DHT22;34799;51.440;-2.534;2022-07-29T04:23:19;15.70;99.90
48988;DHT22;34799;51.440;-2.534;2022-07-29T04:25:46;15.70;99.90
48988;DHT22;34799;51.440;-2.534;2022-07-29T04:28:13;15.70;99.90
48988;DHT22;34799;51.440;-2.534;2022-07-29T04:30:40;15.70;99.90
48988;DHT22;34799;51.440;-2.534;2022-07-29T04:33:08;15.70;99.90
48988;DHT22;34799;51.440;-2.534;2022-07-29T04:35:36;15.60;99.90
48988;DHT22;34799;51.440;-2.534;2022-07-29T04:38:05;15.60;99.90
48988;DHT22;34799;51.440;-2.534;2022-07-29T04:40:33;15.60;99.90
48988;DHT22;34799;51.440;-2.534;2022-07-29T04:43:01;16.20;99.90
48988;DHT22;34799;51.440;-2.534;2022-07-29T04:45:28;15.70;99.90
48988;DHT22;34799;51.440;-2.534;2022-07-29T04:47:56;15.60;99.90
48988;DHT22;34799;51.440;-2.534;2022-07-29T04:50:23;15.60;99.90
48988;DHT22;34799;51.440;-2.534;2022-07-29T04:52:50;15.60;99.90
48988;DHT22;34799;51.440;-2.534;2022-07-29T04:55:19;15.60;99.90
48988;DHT22;34799;51.440;-2.534;2022-07-29T04:57:46;15.60;99.90
48988;DHT22;34799;51.440;-2.534;2022-07-29T05:00:13;15.90;99.90
48988;DHT22;34799;51.440;-2.534;2022-07-29T05:02:40;15.60;99.90
48988;DHT22;34799;51.440;-2.534;2022-07-29T05:05:08;15.50;99.90
48988;DHT22;34799;51.440;-2.534;2022-07-29T05:07:37;15.60;99.90
48988;DHT22;34799;51.440;-2.534;2022-07-29T05:10:04;15.60;99.90
48988;DHT22;34799;51.440;-2.534;2022-07-29T05:12:32;15.60;99.90
48988;DHT22;34799;51.440;-2.534;2022-07-29T05:14:59;15.60;99.90
48988;DHT22;34799;51.440;-2.534;2022-07-29T05:17:26;15.60;99.90
48988;DHT22;34799;51.440;-2.534;2022-07-29T05:19:55;15.60;99.90
48988;DHT22;34799;51.440;-2.534;2022-07-29T05:22:22;15.60;99.90
48988;DHT22;34799;51.440;-2.534;2022-07-29T05:24:49;15.60;99.90
48988;DHT22;34799;51.440;-2.534;2022-07-29T05:27:16;16.20;99.90
48988;DHT22;34799;51.440;-2.534;2022-07-29T05:29:43;15.60;99.90
48988;DHT22;34799;51.440;-2.534;2022-07-29T05:32:13;15.80;99.90
48988;DHT22;34799;51.440;-2.534;2022-07-29T05:34:40;15.80;99.90
48988;DHT22;34799;51.440;-2.534;2022-07-29T05:37:07;15.90;99.90
48988;DHT22;34799;51.440;-2.534;2022-07-29T05:39:34;15.90;99.90
48988;DHT22;34799;51.440;-2.534;2022-07-29T05:42:01;15.90;99.90
48988;DHT22;34799;51.440;-2.534;2022-07-29T05:44:28;15.90;99.90
48988;DHT22;34799;51.440;-2.534;2022-07-29T05:46:57;16.00;99.90
48988;DHT22;34799;51.440;-2.534;2022-07-29T05:49:24;16.00;99.90
48988;DHT22;34799;51.440;-2.534;2022-07-29T05:51:51;16.00;99.90
48988;DHT22;34799;51.440;-2.534;2022-07-29T05:54:18;16.10;99.90
48988;DHT22;34799;51.440;-2.534;2022-07-29T05:56:45;16.10;99.90
48988;DHT22;34799;51.440;-2.534;2022-07-29T05:59:12;16.20;99.90
48988;DHT22;34799;51.440;-2.534;2022-07-29T06:01:40;16.20;99.90
48988;DHT22;34799;51.440;-2.534;2022-07-29T06:04:08;16.20;99.90
48988;DHT22;34799;51.440;-2.534;2022-07-29T06:06:35;16.40;99.90
48988;DHT22;34799;51.440;-2.534;2022-07-29T06:09:03;16.30;99.90
48988;DHT22;34799;51.440;-2.534;2022-07-29T06:11:30;16.40;99.90
48988;DHT22;34799;51.440;-2.534;2022-07-29T06:13:57;16.40;99.90
48988;DHT22;34799;51.440;-2.534;2022-07-29T06:16:24;16.40;99.90
48988;DHT22;34799;51.440;-2.534;2022-07-29T06:18:52;16.50;99.90
48988;DHT22;34799;51.440;-2.534;2022-07-29T06:21:19;16.50;99.90
48988;DHT22;34799;51.440;-2.534;2022-07-29T06:23:46;17.20;99.90
48988;DHT22;34799;51.440;-2.534;2022-07-29T06:26:14;16.60;99.90
48988;DHT22;34799;51.440;-2.534;2022-07-29T06:28:41;16.80;99.90
48988;DHT22;34799;51.440;-2.534;2022-07-29T06:31:09;16.80;99.90
48988;DHT22;34799;51.440;-2.534;2022-07-29T06:33:36;16.80;99.90
48988;DHT22;34799;51.440;-2.534;2022-07-29T06:36:04;16.90;99.90
48988;DHT22;34799;51.440;-2.534;2022-07-29T06:38:33;16.90;99.90
48988;DHT22;34799;51.440;-2.534;2022-07-29T06:41:01;17.00;99.90
48988;DHT22;34799;51.440;-2.534;2022-07-29T06:43:37;17.00;99.90
48988;DHT22;34799;51.440;-2.534;2022-07-29T06:46:10;17.00;99.90
48988;DHT22;34799;51.440;-2.534;2022-07-29T06:48:39;17.10;99.90
48988;DHT22;34799;51.440;-2.534;2022-07-29T06:51:06;17.20;99.90
48988;DHT22;34799;51.440;-2.534;2022-07-29T06:53:34;17.30;99.90
48988;DHT22;34799;51.440;-2.534;2022-07-29T06:56:02;17.30;99.90
48988;DHT22;34799;51.440;-2.534;2022-07-29T06:58:30;17.40;99.90
48988;DHT22;34799;51.440;-2.534;2022-07-29T07:01:00;17.40;99.90
48988;DHT22;34799;51.440;-2.534;2022-07-29T07:03:27;17.40;99.90
48988;DHT22;34799;51.440;-2.534;2022-07-29T07:05:56;17.90;99.90
48988;DHT22;34799;51.440;-2.534;2022-07-29T07:08:24;17.50;99.90
48988;DHT22;34799;51.440;-2.534;2022-07-29T07:10:52;17.50;99.90
48988;DHT22;34799;51.440;-2.534;2022-07-29T07:13:19;17.50;99.90
48988;DHT22;34799;51.440;-2.534;2022-07-29T07:15:48;17.50;99.90
48988;DHT22;34799;51.440;-2.534;2022-07-29T07:18:15;17.60;99.90
48988;DHT22;34799;51.440;-2.534;2022-07-29T07:20:42;17.70;99.90
48988;DHT22;34799;51.440;-2.534;2022-07-29T07:23:10;17.70;99.90
48988;DHT22;34799;51.440;-2.534;2022-07-29T07:25:37;17.80;99.90
48988;DHT22;34799;51.440;-2.534;2022-07-29T07:28:06;17.80;99.90
48988;DHT22;34799;51.440;-2.534;2022-07-29T07:30:33;17.90;99.90
48988;DHT22;34799;51.440;-2.534;2022-07-29T07:33:00;18.00;99.90
48988;DHT22;34799;51.440;-2.534;2022-07-29T07:35:27;18.00;99.90
48988;DHT22;34799;51.440;-2.534;2022-07-29T07:37:56;18.10;99.90
48988;DHT22;34799;51.440;-2.534;2022-07-29T07:40:25;18.20;99.90
48988;DHT22;34799;51.440;-2.534;2022-07-29T07:42:52;18.30;99.90
48988;DHT22;34799;51.440;-2.534;2022-07-29T07:45:19;18.30;99.90
48988;DHT22;34799;51.440;-2.534;2022-07-29T07:47:46;18.30;99.90
48988;DHT22;34799;51.440;-2.534;2022-07-29T07:50:14;18.50;99.90
48988;DHT22;34799;51.440;-2.534;2022-07-29T07:52:55;18.50;99.90
48988;DHT22;34799;51.440;-2.534;2022-07-29T07:55:26;18.60;99.90
48988;DHT22;34799;51.440;-2.534;2022-07-29T07:57:54;18.70;99.90
48988;DHT22;34799;51.440;-2.534;2022-07-29T08:00:22;18.70;99.90
48988;DHT22;34799;51.440;-2.534;2022-07-29T08:02:50;18.80;99.90
48988;DHT22;34799;51.440;-2.534;2022-07-29T08:05:17;18.90;99.90
48988;DHT22;34799;51.440;-2.534;2022-07-29T08:07:46;19.00;99.90
48988;DHT22;34799;51.440;-2.534;2022-07-29T08:10:15;19.00;99.90
48988;DHT22;34799;51.440;-2.534;2022-07-29T08:13:06;19.00;99.90
48988;DHT22;34799;51.440;-2.534;2022-07-29T08:15:34;19.00;99.90
48988;DHT22;34799;51.440;-2.534;2022-07-29T08:18:01;19.00;99.90
48988;DHT22;34799;51.440;-2.534;2022-07-29T08:20:32;19.10;99.90
48988;DHT22;34799;51.440;-2.534;2022-07-29T08:23:02;19.20;99.90
48988;DHT22;34799;51.440;-2.534;2022-07-29T08:25:29;19.30;99.90
48988;DHT22;34799;51.440;-2.534;2022-07-29T08:27:57;19.30;99.90
48988;DHT22;34799;51.440;-2.534;2022-07-29T08:30:25;19.30;99.90
48988;DHT22;34799;51.440;-2.534;2022-07-29T08:32:52;19.30;99.90
48988;DHT22;34799;51.440;-2.534;2022-07-29T08:35:21;19.30;99.90
48988;DHT22;34799;51.440;-2.534;2022-07-29T08:37:50;19.40;99.90
48988;DHT22;34799;51.440;-2.534;2022-07-29T08:40:17;19.60;99.90
48988;DHT22;34799;51.440;-2.534;2022-07-29T08:42:45;19.70;99.90
48988;DHT22;34799;51.440;-2.534;2022-07-29T08:45:12;19.80;99.90
48988;DHT22;34799;51.440;-2.534;2022-07-29T08:47:39;19.90;99.90
48988;DHT22;34799;51.440;-2.534;2022-07-29T08:50:08;19.90;99.90
48988;DHT22;34799;51.440;-2.534;2022-07-29T08:52:38;20.00;99.80
48988;DHT22;34799;51.440;-2.534;2022-07-29T08:55:09;20.10;99.90
48988;DHT22;34799;51.440;-2.534;2022-07-29T08:57:38;20.30;99.80
48988;DHT22;34799;51.440;-2.534;2022-07-29T09:00:07;20.30;99.90
48988;DHT22;34799;51.440;-2.534;2022-07-29T09:02:41;20.30;99.80
48988;DHT22;34799;51.440;-2.534;2022-07-29T09:05:12;20.40;99.90
48988;DHT22;34799;51.440;-2.534;2022-07-29T09:07:39;20.40;99.90
48988;DHT22;34799;51.440;-2.534;2022-07-29T09:10:10;20.60;99.90
48988;DHT22;34799;51.440;-2.534;2022-07-29T09:12:37;20.60;99.90
48988;DHT22;34799;51.440;-2.534;2022-07-29T09:15:05;20.60;99.90
48988;DHT22;34799;51.440;-2.534;2022-07-29T09:17:49;20.80;99.80
48988;DHT22;34799;51.440;-2.534;2022-07-29T09:20:18;20.90;99.50
48988;DHT22;34799;51.440;-2.534;2022-07-29T09:22:46;21.00;99.80
48988;DHT22;34799;51.440;-2.534;2022-07-29T09:25:34;21.10;99.30
48988;DHT22;34799;51.440;-2.534;2022-07-29T09:28:06;21.00;99.60
48988;DHT22;34799;51.440;-2.534;2022-07-29T09:30:34;21.20;99.30
48988;DHT22;34799;51.440;-2.534;2022-07-29T09:33:03;21.20;99.40
48988;DHT22;34799;51.440;-2.534;2022-07-29T09:35:31;21.30;99.10
48988;DHT22;34799;51.440;-2.534;2022-07-29T09:38:12;21.30;99.20
48988;DHT22;34799;51.440;-2.534;2022-07-29T09:40:41;21.30;98.80
48988;DHT22;34799;51.440;-2.534;2022-07-29T09:43:12;21.30;99.10
48988;DHT22;34799;51.440;-2.534;2022-07-29T09:45:41;21.30;99.10
48988;DHT22;34799;51.440;-2.534;2022-07-29T09:48:17;21.40;98.70
48988;DHT22;34799;51.440;-2.534;2022-07-29T09:50:45;21.40;98.90
48988;DHT22;34799;51.440;-2.534;2022-07-29T09:53:36;21.50;98.60
48988;DHT22;34799;51.440;-2.534;2022-07-29T09:56:04;21.50;98.50
48988;DHT22;34799;51.440;-2.534;2022-07-29T09:58:32;21.70;98.70
48988;DHT22;34799;51.440;-2.534;2022-07-29T10:01:03;21.80;98.40
48988;DHT22;34799;51.440;-2.534;2022-07-29T10:03:30;21.90;98.00
48988;DHT22;34799;51.440;-2.534;2022-07-29T10:06:09;22.10;97.60
48988;DHT22;34799;51.440;-2.534;2022-07-29T10:08:41;22.20;97.60
48988;DHT22;34799;51.440;-2.534;2022-07-29T10:11:11;22.40;97.20
48988;DHT22;34799;51.440;-2.534;2022-07-29T10:13:40;22.50;96.00
48988;DHT22;34799;51.440;-2.534;2022-07-29T10:16:08;22.50;96.50
48988;DHT22;34799;51.440;-2.534;2022-07-29T10:18:38;22.60;96.60
48988;DHT22;34799;51.440;-2.534;2022-07-29T10:21:06;22.60;96.10
48988;DHT22;34799;51.440;-2.534;2022-07-29T10:23:34;22.60;96.50
48988;DHT22;34799;51.440;-2.534;2022-07-29T10:26:03;22.70;96.10
48988;DHT22;34799;51.440;-2.534;2022-07-29T10:28:31;22.80;96.10
48988;DHT22;34799;51.440;-2.534;2022-07-29T10:31:01;22.90;96.30
48988;DHT22;34799;51.440;-2.534;2022-07-29T10:42:21;22.70;96.00
48988;DHT22;34799;51.440;-2.534;2022-07-29T10:44:50;22.90;96.20
48988;DHT22;34799;51.440;-2.534;2022-07-29T10:47:26;23.10;95.40
48988;DHT22;34799;51.440;-2.534;2022-07-29T10:50:13;23.20;95.20
48988;DHT22;34799;51.440;-2.534;2022-07-29T10:52:53;23.30;94.80
48988;DHT22;34799;51.440;-2.534;2022-07-29T10:55:47;23.30;94.90
48988;DHT22;34799;51.440;-2.534;2022-07-29T10:58:21;23.30;95.20
48988;DHT22;34799;51.440;-2.534;2022-07-29T11:00:53;23.50;95.10
48988;DHT22;34799;51.440;-2.534;2022-07-29T11:03:43;23.60;94.70
48988;DHT22;34799;51.440;-2.534;2022-07-29T11:06:13;23.80;94.20
48988;DHT22;34799;51.440;-2.534;2022-07-29T11:08:41;23.80;93.80
48988;DHT22;34799;51.440;-2.534;2022-07-29T11:13:50;23.90;93.50
48988;DHT22;34799;51.440;-2.534;2022-07-29T11:16:19;23.90;93.40
48988;DHT22;34799;51.440;-2.534;2022-07-29T11:19:19;23.90;93.40
48988;DHT22;34799;51.440;-2.534;2022-07-29T11:21:46;23.90;93.40
48988;DHT22;34799;51.440;-2.534;2022-07-29T11:24:17;23.00;93.20
48988;DHT22;34799;51.440;-2.534;2022-07-29T11:26:45;23.90;93.60
48988;DHT22;34799;51.440;-2.534;2022-07-29T11:29:22;24.10;93.40
48988;DHT22;34799;51.440;-2.534;2022-07-29T11:31:52;24.20;93.00
48988;DHT22;34799;51.440;-2.534;2022-07-29T11:34:30;24.30;92.80
48988;DHT22;34799;51.440;-2.534;2022-07-29T11:45:05;24.00;92.50
48988;DHT22;34799;51.440;-2.534;2022-07-29T11:47:34;24.00;92.70
48988;DHT22;34799;51.440;-2.534;2022-07-29T11:50:14;24.10;92.70
48988;DHT22;34799;51.440;-2.534;2022-07-29T11:52:46;24.40;92.50
48988;DHT22;34799;51.440;-2.534;2022-07-29T11:55:17;24.70;92.10
48988;DHT22;34799;51.440;-2.534;2022-07-29T11:58:04;24.80;92.10
48988;DHT22;34799;51.440;-2.534;2022-07-29T12:00:39;24.80;91.70
48988;DHT22;34799;51.440;-2.534;2022-07-29T12:03:09;24.90;91.20
48988;DHT22;34799;51.440;-2.534;2022-07-29T12:05:43;24.90;91.50
48988;DHT22;34799;51.440;-2.534;2022-07-29T12:08:23;25.80;91.60
48988;DHT22;34799;51.440;-2.534;2022-07-29T12:10:53;25.20;91.40
48988;DHT22;34799;51.440;-2.534;2022-07-29T12:13:21;25.60;91.40
48988;DHT22;34799;51.440;-2.534;2022-07-29T12:15:54;25.80;90.90
48988;DHT22;34799;51.440;-2.534;2022-07-29T12:18:21;26.10;90.40
48988;DHT22;34799;51.440;-2.534;2022-07-29T12:20:48;26.20;89.40
48988;DHT22;34799;51.440;-2.534;2022-07-29T12:23:22;26.10;89.60
48988;DHT22;34799;51.440;-2.534;2022-07-29T12:25:49;26.20;90.40
48988;DHT22;34799;51.440;-2.534;2022-07-29T12:28:17;26.30;89.70
48988;DHT22;34799;51.440;-2.534;2022-07-29T12:30:48;26.30;89.20
48988;DHT22;34799;51.440;-2.534;2022-07-29T12:33:17;26.40;89.90
48988;DHT22;34799;51.440;-2.534;2022-07-29T12:35:47;26.60;90.10
48988;DHT22;34799;51.440;-2.534;2022-07-29T12:38:24;26.90;89.80
48988;DHT22;34799;51.440;-2.534;2022-07-29T12:40:52;27.00;89.70
48988;DHT22;34799;51.440;-2.534;2022-07-29T12:43:24;27.20;88.80
48988;DHT22;34799;51.440;-2.534;2022-07-29T12:45:53;27.40;88.30
48988;DHT22;34799;51.440;-2.534;2022-07-29T12:48:34;27.30;87.90
48988;DHT22;34799;51.440;-2.534;2022-07-29T12:51:03;27.10;88.20
48988;DHT22;34799;51.440;-2.534;2022-07-29T12:53:30;27.10;88.00
48988;DHT22;34799;51.440;-2.534;2022-07-29T12:55:59;26.80;88.30
48988;DHT22;34799;51.440;-2.534;2022-07-29T12:58:30;26.60;88.50
48988;DHT22;34799;51.440;-2.534;2022-07-29T13:01:25;26.60;89.40
48988;DHT22;34799;51.440;-2.534;2022-07-29T13:03:56;26.80;88.80
48988;DHT22;34799;51.440;-2.534;2022-07-29T13:06:28;27.20;87.60
48988;DHT22;34799;51.440;-2.534;2022-07-29T13:09:00;27.50;87.50
48988;DHT22;34799;51.440;-2.534;2022-07-29T13:11:42;27.90;86.90
48988;DHT22;34799;51.440;-2.534;2022-07-29T13:14:32;28.20;86.00
48988;DHT22;34799;51.440;-2.534;2022-07-29T13:22:05;28.10;86.20
48988;DHT22;34799;51.440;-2.534;2022-07-29T13:24:32;28.20;86.50
48988;DHT22;34799;51.440;-2.534;2022-07-29T13:26:59;28.30;86.20
48988;DHT22;34799;51.440;-2.534;2022-07-29T13:29:26;28.50;86.00
48988;DHT22;34799;51.440;-2.534;2022-07-29T13:31:57;28.50;85.20
48988;DHT22;34799;51.440;-2.534;2022-07-29T13:34:25;28.50;86.40
48988;DHT22;34799;51.440;-2.534;2022-07-29T13:36:52;28.50;85.80
48988;DHT22;34799;51.440;-2.534;2022-07-29T13:39:19;29.00;86.00
48988;DHT22;34799;51.440;-2.534;2022-07-29T13:41:46;29.20;85.50
48988;DHT22;34799;51.440;-2.534;2022-07-29T13:44:13;29.10;85.30
48988;DHT22;34799;51.440;-2.534;2022-07-29T13:46:41;29.20;85.00
48988;DHT22;34799;51.440;-2.534;2022-07-29T13:49:08;29.30;84.80
48988;DHT22;34799;51.440;-2.534;2022-07-29T13:51:35;29.40;84.30
48988;DHT22;34799;51.440;-2.534;2022-07-29T13:54:03;29.40;83.40
48988;DHT22;34799;51.440;-2.534;2022-07-29T13:56:30;29.50;83.80
48988;DHT22;34799;51.440;-2.534;2022-07-29T13:58:59;29.40;82.90
48988;DHT22;34799;51.440;-2.534;2022-07-29T14:01:26;29.40;83.20
48988;DHT22;34799;51.440;-2.534;2022-07-29T14:03:54;29.60;83.90
48988;DHT22;34799;51.440;-2.534;2022-07-29T14:06:21;29.70;82.60
48988;DHT22;34799;51.440;-2.534;2022-07-29T14:08:48;29.80;83.40
48988;DHT22;34799;51.440;-2.534;2022-07-29T14:11:16;29.80;82.30
48988;DHT22;34799;51.440;-2.534;2022-07-29T14:13:45;29.90;82.70
48988;DHT22;34799;51.440;-2.534;2022-07-29T14:16:12;29.90;82.10
48988;DHT22;34799;51.440;-2.534;2022-07-29T14:18:39;30.00;82.10
48988;DHT22;34799;51.440;-2.534;2022-07-29T14:21:06;30.20;81.90
48988;DHT22;34799;51.440;-2.534;2022-07-29T14:23:33;30.30;81.40
48988;DHT22;34799;51.440;-2.534;2022-07-29T14:26:01;30.40;81.70
48988;DHT22;34799;51.440;-2.534;2022-07-29T14:28:29;30.50;81.80
48988;DHT22;34799;51.440;-2.534;2022-07-29T14:30:56;30.50;81.10
48988;DHT22;34799;51.440;-2.534;2022-07-29T14:33:23;30.30;81.70
48988;DHT22;34799;51.440;-2.534;2022-07-29T14:35:50;30.10;80.70
48988;DHT22;34799;51.440;-2.534;2022-07-29T14:38:23;29.90;81.00
48988;DHT22;34799;51.440;-2.534;2022-07-29T14:40:50;29.70;80.80
48988;DHT22;34799;51.440;-2.534;2022-07-29T14:43:17;29.40;81.00
48988;DHT22;34799;51.440;-2.534;2022-07-29T14:45:45;29.20;82.30
48988;DHT22;34799;51.440;-2.534;2022-07-29T14:48:13;29.20;82.10
48988;DHT22;34799;51.440;-2.534;2022-07-29T14:50:40;29.10;81.90
48988;DHT22;34799;51.440;-2.534;2022-07-29T14:53:07;29.00;82.70
48988;DHT22;34799;51.440;-2.534;2022-07-29T14:55:38;28.90;82.80
48988;DHT22;34799;51.440;-2.534;2022-07-29T14:58:06;29.00;82.70
48988;DHT22;34799;51.440;-2.534;2022-07-29T15:00:35;29.10;82.50
48988;DHT22;34799;51.440;-2.534;2022-07-29T15:03:04;29.30;82.80
48988;DHT22;34799;51.440;-2.534;2022-07-29T15:05:32;29.30;81.70
48988;DHT22;34799;51.440;-2.534;2022-07-29T15:08:07;29.10;87.40
48988;DHT22;34799;51.440;-2.534;2022-07-29T15:10:35;29.00;88.20
48988;DHT22;34799;51.440;-2.534;2022-07-29T15:13:02;28.80;87.70
48988;DHT22;34799;51.440;-2.534;2022-07-29T15:15:31;28.50;88.90
48988;DHT22;34799;51.440;-2.534;2022-07-29T15:17:58;28.50;89.00
48988;DHT22;34799;51.440;-2.534;2022-07-29T15:20:25;28.40;89.10
48988;DHT22;34799;51.440;-2.534;2022-07-29T15:22:54;28.30;88.90
48988;DHT22;34799;51.440;-2.534;2022-07-29T15:25:24;28.20;89.50
48988;DHT22;34799;51.440;-2.534;2022-07-29T15:27:52;28.20;90.20
48988;DHT22;34799;51.440;-2.534;2022-07-29T15:30:20;28.40;89.50
48988;DHT22;34799;51.440;-2.534;2022-07-29T15:32:47;28.50;88.90
48988;DHT22;34799;51.440;-2.534;2022-07-29T15:35:16;28.70;88.90
48988;DHT22;34799;51.440;-2.534;2022-07-29T15:37:43;28.90;88.70
48988;DHT22;34799;51.440;-2.534;2022-07-29T15:40:10;28.70;88.80
48988;DHT22;34799;51.440;-2.534;2022-07-29T15:42:37;28.70;88.80
48988;DHT22;34799;51.440;-2.534;2022-07-29T15:45:05;29.00;88.80
48988;DHT22;34799;51.440;-2.534;2022-07-29T15:47:33;29.30;88.70
48988;DHT22;34799;51.440;-2.534;2022-07-29T15:50:01;29.50;88.30
48988;DHT22;34799;51.440;-2.534;2022-07-29T15:52:29;29.60;88.00
48988;DHT22;34799;51.440;-2.534;2022-07-29T15:54:56;29.80;87.70
48988;DHT22;34799;51.440;-2.534;2022-07-29T15:57:23;30.10;87.70
48988;DHT22;34799;51.440;-2.534;2022-07-29T15:59:52;30.30;87.10
48988;DHT22;34799;51.440;-2.534;2022-07-29T16:02:19;30.50;86.70
48988;DHT22;34799;51.440;-2.534;2022-07-29T16:04:46;30.50;86.50